Time;durP1;ratioP1;P1;durP2;ratioP2;P2;SDS_P1;SDS_P2;PMS_P1;PMS_P2;Temp;Humidity;BMP_temperature;BMP_pressure;BME280_temperature;BME280_humidity;BME280_pressure;Samples;Min_cycle;Max_cycle;Signal;HPM_P1;HPM_P2
2023/07/18 03:57:06;;;;;;;21.77;20.17;;;24.90;99.90;;;;;;5168454;23;20104;-93
2023/07/18 04:00:26;;;;;;;20.77;19.03;;;25.00;99.90;;;;;;5400204;23;20062;-93
2023/07/18 05:33:51;;;;;;;25.10;22.98;;;37.10;97.30;;;;;;5229084;23;20058;-93
2023/07/18 05:45:09;;;;;;;25.50;23.65;;;37.10;96.20;;;;;;5164667;23;20046;-92
2023/07/18 05:51:18;;;;;;;25.23;23.67;;;37.70;95.30;;;;;;4883026;29;20047;-93
2023/07/18 05:55:13;;;;;;;;;;;;;;;;;;;;;
2023/07/18 05:58:37;;;;;;;;;;;;;;;;;;;;;
2023/07/18 06:02:04;;;;;;;25.65;23.95;;;38.20;92.70;;;;;;4985549;28;20049;-93
2023/07/18 06:04:35;;;;;;;24.75;23.15;;;38.30;92.80;;;;;;4986086;28;20412;-93
2023/07/18 06:07:56;;;;;;;27.40;24.93;;;38.60;92.40;;;;;;4964010;28;20073;-93
2023/07/18 06:10:28;;;;;;;25.98;24.30;;;38.90;91.70;;;;;;4978390;28;20038;-94
2023/07/18 06:13:42;;;;;;;;;;;;;;;;;;;;;
2023/07/18 06:29:40;;;;;;;26.40;23.95;;;39.80;88.30;;;;;;5020766;28;20049;-94
2023/07/18 06:32:26;;;;;;;;;;;;;;;;;;;;;
2023/07/18 06:35:12;;;;;;;26.88;24.80;;;39.10;89.10;;;;;;5020411;28;20056;-94
2023/07/18 09:16:08;;;;;;;25.60;23.87;;;39.70;74.90;;;;;;6157637;23;20016;31
2023/07/18 09:18:35;;;;;;;26.55;24.45;;;39.10;76.50;;;;;;4921273;29;20062;-92
2023/07/18 09:21:10;;;;;;;27.58;25.30;;;39.10;75.90;;;;;;4938586;29;20042;-91
2023/07/18 09:23:41;;;;;;;25.67;24.00;;;39.10;76.80;;;;;;4938776;29;20089;-93
2023/07/18 09:26:12;;;;;;;26.27;24.40;;;39.20;76.80;;;;;;4938404;29;20476;-92
2023/07/18 09:28:39;;;;;;;37.90;35.60;;;39.10;77.60;;;;;;4923096;29;20055;-94
2023/07/18 09:31:26;;;;;;;25.55;23.42;;;38.80;79.60;;;;;;4923375;29;20118;-92
2023/07/18 09:33:54;;;;;;;25.20;23.42;;;38.60;80.30;;;;;;4939714;29;20039;-93
2023/07/18 09:36:27;;;;;;;25.92;23.88;;;38.50;80.10;;;;;;4923321;29;20027;-94
2023/07/18 09:38:54;;;;;;;31.23;29.33;;;38.40;80.50;;;;;;4923124;29;20035;-93
2023/07/18 09:41:22;;;;;;;25.17;23.30;;;38.30;81.10;;;;;;4922782;29;20039;-93
2023/07/18 09:43:50;;;;;;;25.17;23.13;;;38.30;81.80;;;;;;4921821;29;20151;-93
2023/07/18 09:46:17;;;;;;;26.25;24.00;;;38.20;80.30;;;;;;4923030;29;20047;-92
2023/07/18 09:48:48;;;;;;;26.27;24.02;;;38.20;81.00;;;;;;4938514;29;20059;-93
2023/07/18 09:51:19;;;;;;;25.52;23.52;;;38.40;80.80;;;;;;4923405;29;20036;-93
2023/07/18 09:53:48;;;;;;;25.17;23.38;;;37.90;80.00;;;;;;4923150;29;20035;-92
2023/07/18 09:56:16;;;;;;;24.77;23.27;;;37.70;80.90;;;;;;4922701;29;20039;-93
2023/07/18 09:58:44;;;;;;;24.88;22.83;;;37.70;80.30;;;;;;4923410;29;20039;-93
2023/07/18 10:01:19;;;;;;;24.77;22.92;;;37.60;80.60;;;;;;5193270;23;20195;-94
2023/07/18 10:03:52;;;;;;;27.30;24.40;;;37.50;82.30;;;;;;5018217;28;20057;-91
2023/07/18 10:06:20;;;;;;;25.10;23.00;;;37.50;78.90;;;;;;5019421;28;20037;-86
2023/07/18 10:08:47;;;;;;;25.42;23.40;;;37.70;79.90;;;;;;5030362;28;20048;-83
2023/07/18 10:11:13;;;;;;;24.95;23.05;;;37.80;79.50;;;;;;5047740;28;20029;-88
2023/07/18 10:13:42;;;;;;;24.48;22.67;;;37.90;80.90;;;;;;5020027;28;20489;-75
2023/07/18 10:16:16;;;;;;;25.52;23.35;;;37.70;81.10;;;;;;5053056;28;20036;-84
2023/07/18 10:18:49;;;;;;;24.10;22.38;;;37.60;80.90;;;;;;5017564;28;20036;-85
2023/07/18 10:21:36;;;;;;;25.08;23.35;;;37.70;80.30;;;;;;5034463;28;20036;-84
2023/07/18 10:24:21;;;;;;;25.50;23.80;;;37.60;82.00;;;;;;5021210;28;20038;-94
2023/07/18 10:26:58;;;;;;;25.33;23.52;;;37.60;81.70;;;;;;5029880;28;20146;-87
2023/07/18 10:29:31;;;;;;;26.70;24.38;;;37.60;80.10;;;;;;5027388;28;20091;-87
2023/07/18 10:32:00;;;;;;;25.57;23.43;;;37.40;82.30;;;;;;5016049;28;20040;-87
2023/07/18 10:34:26;;;;;;;26.02;23.98;;;37.30;79.60;;;;;;5016052;28;20038;-87
2023/07/18 10:37:15;;;;;;;26.38;24.20;;;37.30;80.40;;;;;;5019358;28;20060;-87
2023/07/18 10:39:46;;;;;;;25.60;23.45;;;37.50;81.00;;;;;;5019684;28;20034;-86
2023/07/18 10:42:29;;;;;;;25.30;23.55;;;37.50;79.30;;;;;;5019805;28;20037;-87
2023/07/18 10:45:03;;;;;;;25.23;23.45;;;37.30;78.80;;;;;;5022008;28;20037;-87
2023/07/18 10:47:30;;;;;;;25.33;23.70;;;37.40;75.90;;;;;;5022720;28;20048;-86
2023/07/18 10:49:58;;;;;;;25.10;23.33;;;37.30;76.20;;;;;;5018905;28;20061;-87
2023/07/18 10:52:24;;;;;;;25.15;23.45;;;37.50;77.30;;;;;;5033100;28;20103;-87
2023/07/18 10:54:55;;;;;;;24.70;22.95;;;37.30;78.10;;;;;;5022160;28;20032;-87
2023/07/18 10:57:33;;;;;;;25.13;23.50;;;37.40;78.30;;;;;;5018974;28;20044;-87
2023/07/18 11:00:02;;;;;;;25.50;23.70;;;37.50;79.70;;;;;;5013680;28;20037;-88
2023/07/18 11:02:36;;;;;;;25.58;23.40;;;37.40;80.40;;;;;;5004878;28;20054;-88
2023/07/18 11:05:12;;;;;;;25.23;23.55;;;37.40;80.60;;;;;;5007785;28;20061;-89
2023/07/18 11:07:56;;;;;;;24.88;23.25;;;37.60;79.90;;;;;;5002525;28;20052;-88
2023/07/18 11:10:23;;;;;;;;;;;37.50;78.50;;;;;;5007909;28;20033;-89
2023/07/18 11:12:52;;;;;;;23.88;22.42;;;37.30;76.90;;;;;;4993356;28;19905;-88
2023/07/18 11:15:21;;;;;;;24.88;23.00;;;37.40;77.20;;;;;;5002955;28;20038;-88
2023/07/18 11:17:47;;;;;;;24.83;22.92;;;37.30;77.10;;;;;;5002769;28;20551;-88
2023/07/18 11:20:13;;;;;;;23.80;22.30;;;37.40;77.40;;;;;;5015593;28;20085;-87
2023/07/18 11:22:40;;;;;;;24.25;22.65;;;37.30;77.30;;;;;;5015827;28;20120;-88
2023/07/18 11:25:07;;;;;;;25.00;22.88;;;37.40;78.90;;;;;;5015699;28;20034;-88
2023/07/18 11:27:34;;;;;;;24.40;22.77;;;37.60;78.30;;;;;;5015676;28;20077;-88
2023/07/18 11:30:03;;;;;;;24.70;22.63;;;37.40;78.00;;;;;;5019074;28;20046;-89
2023/07/18 11:32:43;;;;;;;24.58;22.70;;;37.40;79.50;;;;;;5009922;28;20033;-90
2023/07/18 11:35:13;;;;;;;25.13;22.92;;;37.50;78.70;;;;;;5019214;28;20037;-89
2023/07/18 11:37:43;;;;;;;26.33;24.20;;;37.50;78.80;;;;;;5001503;28;20117;-89
2023/07/18 11:40:31;;;;;;;24.13;22.83;;;37.70;78.20;;;;;;5014683;28;20377;-88
2023/07/18 11:42:59;;;;;;;25.27;23.38;;;37.70;78.10;;;;;;4998946;28;20036;-88
2023/07/18 11:45:27;;;;;;;24.50;22.73;;;37.50;79.70;;;;;;5033791;28;20033;-91
2023/07/18 11:47:56;;;;;;;25.30;23.70;;;37.50;80.60;;;;;;5018510;28;20136;-88
2023/07/18 11:50:28;;;;;;;24.30;22.60;;;37.40;80.90;;;;;;5015274;28;20060;-89
2023/07/18 11:52:59;;;;;;;24.77;23.05;;;37.40;80.70;;;;;;5007224;28;20065;-92
2023/07/18 11:55:25;;;;;;;24.85;23.08;;;37.60;81.60;;;;;;5007338;28;20065;-89
2023/07/18 11:57:52;;;;;;;24.65;22.80;;;37.50;78.90;;;;;;4995940;28;20034;-88
2023/07/18 12:00:22;;;;;;;24.70;22.70;;;37.60;79.80;;;;;;5006894;28;20041;-89
2023/07/18 12:02:49;;;;;;;24.10;22.27;;;37.50;80.80;;;;;;5028876;28;20072;-91
2023/07/18 12:05:16;;;;;;;24.42;22.65;;;37.30;81.00;;;;;;5024757;28;20091;-90
2023/07/18 12:07:44;;;;;;;25.35;23.20;;;37.40;79.60;;;;;;5026420;28;20049;-90
2023/07/18 12:10:11;;;;;;;24.33;22.52;;;37.50;80.60;;;;;;5032048;28;20465;-88
2023/07/18 12:12:41;;;;;;;25.23;22.58;;;37.60;78.60;;;;;;5028544;28;20045;-90
2023/07/18 12:15:09;;;;;;;24.30;22.80;;;37.50;79.10;;;;;;5023525;28;20042;-90
2023/07/18 12:17:37;;;;;;;25.60;23.30;;;37.30;78.60;;;;;;5012577;28;20037;-89
2023/07/18 12:20:04;;;;;;;24.65;22.85;;;37.20;79.50;;;;;;5026251;28;20057;-89
2023/07/18 12:22:31;;;;;;;25.23;23.30;;;37.30;80.80;;;;;;5012120;28;20037;-89
2023/07/18 12:24:58;;;;;;;25.40;23.38;;;37.50;81.30;;;;;;5009927;28;20048;-90
2023/07/18 12:27:25;;;;;;;24.58;22.77;;;37.70;81.00;;;;;;5008786;28;20048;-89
2023/07/18 12:29:52;;;;;;;25.25;23.17;;;37.60;81.90;;;;;;5026292;28;20069;-91
2023/07/18 12:32:18;;;;;;;24.30;22.63;;;37.60;80.70;;;;;;5026382;28;20030;-89
2023/07/18 12:34:45;;;;;;;24.23;22.48;;;37.30;81.10;;;;;;5025287;28;20033;-89
2023/07/18 12:37:11;;;;;;;24.75;22.85;;;37.20;80.00;;;;;;5014493;28;20532;-90
2023/07/18 12:39:39;;;;;;;24.05;22.48;;;36.90;80.00;;;;;;5028660;28;20033;-91
2023/07/18 12:42:06;;;;;;;25.38;23.00;;;37.10;82.10;;;;;;5012710;28;20033;-88
2023/07/18 12:44:44;;;;;;;24.42;22.65;;;37.00;81.50;;;;;;5025004;28;20055;-90
2023/07/18 12:47:11;;;;;;;23.45;21.92;;;37.10;81.70;;;;;;5011331;28;20048;-89
2023/07/18 12:49:39;;;;;;;24.15;22.42;;;37.20;81.90;;;;;;5024351;28;20065;-90
2023/07/18 12:52:06;;;;;;;24.50;22.42;;;37.30;82.40;;;;;;5025514;28;20045;-88
2023/07/18 12:54:33;;;;;;;24.08;22.35;;;37.10;81.90;;;;;;5021911;28;20041;-89
2023/07/18 12:57:00;;;;;;;24.38;22.35;;;37.00;83.20;;;;;;5046033;28;20033;-89
2023/07/18 12:59:27;;;;;;;24.45;22.70;;;37.00;83.70;;;;;;5027872;28;20064;-88
2023/07/18 13:01:55;;;;;;;24.77;22.90;;;37.00;84.20;;;;;;5020343;28;20045;-88
2023/07/18 13:04:21;;;;;;;25.17;23.23;;;37.00;84.90;;;;;;5008098;28;20087;-89
2023/07/18 13:06:48;;;;;;;25.98;23.77;;;37.20;84.30;;;;;;5008402;28;20029;-88
2023/07/18 13:09:14;;;;;;;27.10;24.83;;;37.20;84.60;;;;;;5025514;28;20029;-89
2023/07/18 13:11:41;;;;;;;27.90;25.42;;;36.90;85.40;;;;;;5027124;28;20043;-90
2023/07/18 13:14:07;;;;;;;26.80;24.65;;;36.80;85.40;;;;;;5011075;28;20029;-89
2023/07/18 13:16:34;;;;;;;26.33;24.20;;;36.70;85.70;;;;;;5026976;28;20033;-88
2023/07/18 13:19:02;;;;;;;27.42;24.80;;;36.70;85.70;;;;;;5022505;28;20037;-89
2023/07/18 13:21:28;;;;;;;27.63;25.10;;;36.60;85.80;;;;;;5007709;28;20089;-89
2023/07/18 13:23:55;;;;;;;27.70;24.98;;;36.70;86.50;;;;;;5035008;28;20029;-89
2023/07/18 13:26:22;;;;;;;25.13;23.00;;;36.90;85.70;;;;;;5017823;28;20056;-89
2023/07/18 13:28:48;;;;;;;25.27;23.15;;;36.70;83.10;;;;;;5010881;28;20576;-89
2023/07/18 13:31:15;;;;;;;26.38;24.30;;;36.70;83.20;;;;;;5011823;28;20128;-88
2023/07/18 13:33:43;;;;;;;26.15;23.95;;;36.70;83.20;;;;;;5007355;28;20045;-87
2023/07/18 13:36:09;;;;;;;25.98;23.85;;;36.40;84.80;;;;;;5014770;28;20033;-88
2023/07/18 13:38:36;;;;;;;27.90;25.05;;;36.40;85.10;;;;;;5012742;28;20033;-87
2023/07/18 13:41:07;;;;;;;25.75;23.85;;;36.30;85.60;;;;;;5022059;28;20537;-88
2023/07/18 13:43:35;;;;;;;26.20;23.92;;;36.40;84.90;;;;;;5017686;28;20036;-88
2023/07/18 13:46:02;;;;;;;25.95;23.52;;;36.50;85.90;;;;;;5017405;28;20167;-89
2023/07/18 13:48:30;;;;;;;26.88;24.63;;;36.60;86.80;;;;;;5017069;28;20045;-89
2023/07/18 13:50:57;;;;;;;27.25;24.77;;;36.50;86.00;;;;;;5001039;28;20079;-88
2023/07/18 13:53:23;;;;;;;28.88;25.95;;;36.60;86.00;;;;;;5000693;28;20175;-88
2023/07/18 13:55:50;;;;;;;27.88;25.30;;;36.70;85.40;;;;;;5013263;28;20025;-88
2023/07/18 13:58:16;;;;;;;27.58;24.88;;;36.70;85.10;;;;;;5013942;28;20113;-87
2023/07/18 14:00:43;;;;;;;26.13;23.58;;;36.80;83.70;;;;;;5015614;28;20545;-88
2023/07/18 14:03:10;;;;;;;25.95;23.63;;;36.60;83.00;;;;;;5019838;28;20057;-88
2023/07/18 14:05:37;;;;;;;25.40;23.27;;;36.70;83.30;;;;;;5020370;28;20029;-87
2023/07/18 14:08:03;;;;;;;25.38;23.33;;;36.80;83.20;;;;;;5020053;28;20044;-88
2023/07/18 14:10:30;;;;;;;26.02;23.92;;;36.70;83.70;;;;;;5009658;28;20025;-89
2023/07/18 14:12:57;;;;;;;28.02;25.48;;;36.70;84.30;;;;;;5015574;28;20033;-88
2023/07/18 14:15:24;;;;;;;28.30;25.42;;;36.80;84.80;;;;;;5020229;28;20041;-88
2023/07/18 14:17:51;;;;;;;27.63;25.42;;;36.70;84.70;;;;;;5003912;28;20037;-88
2023/07/18 14:20:17;;;;;;;26.25;24.40;;;36.70;84.40;;;;;;5009639;28;20033;-88
2023/07/18 14:22:46;;;;;;;28.48;26.23;;;36.40;84.90;;;;;;5003941;28;20045;-88
2023/07/18 14:25:13;;;;;;;27.00;25.13;;;36.50;85.90;;;;;;5003844;28;20065;-88
2023/07/18 14:27:39;;;;;;;30.05;27.38;;;36.30;86.20;;;;;;5019958;28;20046;-89
2023/07/18 14:30:06;;;;;;;27.88;25.67;;;36.20;86.40;;;;;;5020057;28;20029;-90
2023/07/18 14:32:33;;;;;;;27.20;24.98;;;36.10;86.90;;;;;;5020268;28;20129;-90
2023/07/18 14:35:00;;;;;;;27.27;24.88;;;36.10;86.80;;;;;;5019955;28;20065;-92
2023/07/18 14:37:27;;;;;;;28.15;26.05;;;36.10;86.60;;;;;;5019904;28;20037;-91
2023/07/18 14:40:03;;;;;;;27.30;25.25;;;36.10;87.00;;;;;;5019686;28;20041;-90
2023/07/18 14:42:34;;;;;;;27.50;25.50;;;36.10;86.40;;;;;;5020119;28;20046;-91
2023/07/18 14:45:02;;;;;;;28.10;25.50;;;35.90;87.10;;;;;;5020235;28;20049;-89
2023/07/18 14:47:29;;;;;;;28.35;25.92;;;35.90;88.80;;;;;;5019538;28;20052;-90
2023/07/18 14:49:59;;;;;;;28.38;25.85;;;35.80;88.90;;;;;;5019779;28;20048;-88
2023/07/18 14:52:25;;;;;;;27.50;25.08;;;35.80;88.60;;;;;;5036089;28;20060;-91
2023/07/18 14:54:56;;;;;;;27.40;25.30;;;35.90;87.90;;;;;;5019580;28;20041;-92
2023/07/18 14:57:25;;;;;;;28.13;25.77;;;35.90;88.30;;;;;;5003235;28;20124;-88
2023/07/18 14:59:52;;;;;;;27.63;24.88;;;35.80;89.50;;;;;;5019574;28;20116;-90
2023/07/18 15:02:19;;;;;;;28.95;26.58;;;35.80;89.50;;;;;;5006575;28;20046;-90
2023/07/18 15:04:46;;;;;;;28.20;25.83;;;35.80;90.00;;;;;;4996199;28;20120;-89
2023/07/18 15:07:12;;;;;;;28.02;25.50;;;35.90;90.50;;;;;;5003017;28;20046;-91
2023/07/18 15:09:38;;;;;;;27.95;25.65;;;35.80;90.30;;;;;;5019415;28;20113;-89
2023/07/18 15:12:05;;;;;;;28.95;26.52;;;35.60;90.60;;;;;;5002895;28;20037;-88
2023/07/18 15:14:31;;;;;;;29.52;26.45;;;35.60;90.70;;;;;;5019180;28;20045;-89
2023/07/18 15:16:58;;;;;;;30.23;27.65;;;35.60;90.60;;;;;;5011135;28;20025;-89
2023/07/18 15:19:25;;;;;;;29.23;26.60;;;35.60;90.40;;;;;;5025343;28;20062;-89
2023/07/18 15:21:52;;;;;;;28.08;25.83;;;35.40;90.60;;;;;;5019830;28;20512;-89
2023/07/18 15:24:19;;;;;;;29.02;26.05;;;35.40;90.50;;;;;;5031720;28;20044;-89
2023/07/18 15:26:46;;;;;;;26.92;24.83;;;35.40;90.40;;;;;;5019556;28;20077;-89
2023/07/18 15:29:12;;;;;;;25.63;23.58;;;35.50;90.30;;;;;;5015667;28;20090;-90
2023/07/18 15:31:40;;;;;;;25.92;23.80;;;35.40;90.70;;;;;;5028259;28;20033;-90
2023/07/18 15:34:06;;;;;;;27.70;24.95;;;35.10;91.10;;;;;;5014818;28;20070;-90
2023/07/18 15:36:33;;;;;;;32.60;25.33;;;35.00;91.30;;;;;;5031904;28;20057;-89
2023/07/18 15:38:59;;;;;;;26.90;24.65;;;35.10;90.90;;;;;;5012138;28;20128;-89
2023/07/18 15:41:26;;;;;;;26.13;24.02;;;35.00;90.90;;;;;;5033469;28;20148;-90
2023/07/18 15:43:53;;;;;;;28.48;25.15;;;35.00;91.10;;;;;;5013521;28;20076;-90
2023/07/18 15:46:19;;;;;;;26.83;24.65;;;34.90;91.20;;;;;;5013553;28;20086;-92
2023/07/18 15:48:46;;;;;;;26.63;24.40;;;35.00;91.20;;;;;;5011136;28;20081;-90
2023/07/18 15:51:12;;;;;;;26.38;24.15;;;35.10;91.30;;;;;;5036520;28;20026;-89
2023/07/18 15:53:39;;;;;;;25.90;23.85;;;35.10;91.40;;;;;;5021508;28;20417;-91
2023/07/18 15:56:05;;;;;;;27.42;24.77;;;35.10;91.30;;;;;;5025130;28;20034;-91
2023/07/18 15:58:32;;;;;;;25.80;23.67;;;35.10;91.10;;;;;;5032319;28;20036;-90
2023/07/18 16:00:59;;;;;;;24.55;22.98;;;35.20;91.00;;;;;;5018289;28;20038;-90
2023/07/18 16:03:26;;;;;;;25.60;23.88;;;35.20;90.60;;;;;;5030683;28;20041;-90
2023/07/18 16:05:53;;;;;;;27.45;24.83;;;35.20;90.60;;;;;;5029277;28;20045;-90
2023/07/18 16:08:20;;;;;;;26.27;24.15;;;35.00;90.80;;;;;;5037521;28;20037;-90
2023/07/18 16:10:46;;;;;;;25.42;23.42;;;35.00;91.10;;;;;;5030760;28;20041;-90
2023/07/18 16:13:13;;;;;;;27.40;25.00;;;35.00;91.10;;;;;;5015636;28;20034;-90
2023/07/18 16:15:39;;;;;;;26.45;24.45;;;34.80;91.50;;;;;;4992475;28;20496;-92
2023/07/18 16:18:06;;;;;;;27.13;24.70;;;34.80;91.80;;;;;;5011237;28;20040;-91
2023/07/18 16:20:33;;;;;;;26.60;24.60;;;34.90;91.70;;;;;;5025630;28;20041;-89
2023/07/18 16:23:00;;;;;;;27.92;24.90;;;34.90;91.90;;;;;;5022584;28;20124;-91
2023/07/18 16:25:26;;;;;;;26.52;24.17;;;34.90;92.20;;;;;;5018314;28;20034;-90
2023/07/18 16:27:53;;;;;;;26.67;24.73;;;34.90;92.20;;;;;;5008033;28;20106;-90
2023/07/18 16:30:20;;;;;;;28.52;26.08;;;34.90;92.20;;;;;;5009457;28;20065;-94
2023/07/18 16:32:46;;;;;;;27.85;25.65;;;34.90;92.30;;;;;;4996075;28;20033;-94
2023/07/18 16:35:13;;;;;;;28.38;26.10;;;34.70;92.40;;;;;;5032579;28;20041;-92
2023/07/18 16:37:40;;;;;;;28.73;26.38;;;34.50;92.50;;;;;;5022242;28;20025;-93
2023/07/18 16:40:09;;;;;;;28.25;25.95;;;34.50;92.50;;;;;;5016388;28;20068;-92
2023/07/18 16:42:36;;;;;;;27.48;25.27;;;34.50;92.60;;;;;;5012778;28;20037;-91
2023/07/18 16:45:03;;;;;;;28.70;26.33;;;34.40;92.50;;;;;;5027515;28;20037;-90
2023/07/18 16:47:29;;;;;;;28.65;26.33;;;34.30;92.70;;;;;;5024794;28;20048;-93
2023/07/18 16:49:56;;;;;;;28.63;26.27;;;34.10;92.70;;;;;;5001504;28;20044;-92
2023/07/18 16:52:22;;;;;;;28.23;25.80;;;34.10;92.80;;;;;;5001378;28;20498;-92
2023/07/18 16:54:49;;;;;;;27.65;25.27;;;34.10;92.90;;;;;;5000879;28;20045;-91
2023/07/18 16:57:16;;;;;;;27.02;24.80;;;34.10;92.50;;;;;;5009813;28;20037;-90
2023/07/18 16:59:43;;;;;;;27.63;24.73;;;34.00;92.40;;;;;;5020699;28;20044;-92
2023/07/18 17:02:09;;;;;;;27.60;25.05;;;34.00;92.40;;;;;;5020493;28;20052;-90
2023/07/18 17:04:35;;;;;;;27.20;24.95;;;33.80;92.40;;;;;;5020470;28;20033;-90
2023/07/18 17:07:02;;;;;;;26.83;24.30;;;33.80;92.70;;;;;;5020985;28;20124;-93
2023/07/18 17:09:28;;;;;;;26.70;24.60;;;33.60;92.90;;;;;;5020570;28;20041;-92
2023/07/18 17:11:55;;;;;;;26.48;24.00;;;33.60;93.10;;;;;;5020523;28;20044;-92
2023/07/18 17:14:21;;;;;;;26.48;24.10;;;33.50;93.00;;;;;;5020392;28;20060;-92
2023/07/18 17:16:49;;;;;;;27.48;25.10;;;33.50;93.00;;;;;;5013420;28;20065;-92
2023/07/18 17:19:16;;;;;;;26.90;24.90;;;33.40;93.20;;;;;;4997274;28;20034;-91
2023/07/18 17:21:42;;;;;;;27.35;25.10;;;33.30;93.30;;;;;;4997173;28;20044;-91
2023/07/18 17:24:08;;;;;;;26.70;24.50;;;33.20;93.30;;;;;;4997215;28;20042;-90
2023/07/18 17:26:35;;;;;;;26.92;24.63;;;33.10;93.40;;;;;;4997295;28;20056;-92
2023/07/18 17:29:01;;;;;;;25.63;23.77;;;33.10;93.50;;;;;;5030218;28;20083;-90
2023/07/18 17:31:30;;;;;;;26.60;24.27;;;33.00;93.80;;;;;;5020336;28;20486;-91
2023/07/18 17:33:58;;;;;;;27.55;25.30;;;33.00;93.80;;;;;;5020217;28;20072;-91
2023/07/18 17:36:25;;;;;;;25.80;23.80;;;33.00;93.70;;;;;;5015745;28;20120;-89
2023/07/18 17:38:53;;;;;;;25.25;23.50;;;33.00;93.80;;;;;;5020056;28;20045;-91
2023/07/18 17:41:23;;;;;;;26.67;24.67;;;32.90;93.80;;;;;;5020326;28;20579;-91
2023/07/18 17:43:52;;;;;;;26.90;24.67;;;32.90;93.90;;;;;;5008296;28;20065;-90
2023/07/18 17:46:19;;;;;;;26.83;24.67;;;32.90;94.10;;;;;;5012029;28;20033;-91
2023/07/18 17:48:45;;;;;;;27.27;24.77;;;32.70;94.20;;;;;;5002110;28;20046;-90
2023/07/18 17:51:12;;;;;;;26.65;24.73;;;32.60;94.40;;;;;;4996846;28;20113;-90
2023/07/18 17:53:38;;;;;;;27.85;25.45;;;32.60;94.60;;;;;;4996948;28;20045;-89
2023/07/18 17:56:05;;;;;;;28.20;25.90;;;32.50;94.70;;;;;;4996897;28;20041;-91
2023/07/18 17:58:31;;;;;;;28.45;25.70;;;32.40;94.80;;;;;;4996837;28;20034;-90
2023/07/18 18:00:58;;;;;;;29.50;26.75;;;32.30;94.90;;;;;;4998496;28;20044;-91
2023/07/18 18:03:24;;;;;;;28.02;25.27;;;32.30;95.10;;;;;;5000036;28;20044;-90
2023/07/18 18:05:51;;;;;;;27.65;25.40;;;32.20;95.30;;;;;;5000281;28;20128;-91
2023/07/18 18:08:18;;;;;;;27.85;25.45;;;32.10;95.50;;;;;;5000006;28;20042;-90
2023/07/18 18:10:45;;;;;;;27.58;25.20;;;32.10;95.50;;;;;;5000044;28;20171;-90
2023/07/18 18:13:13;;;;;;;27.48;25.30;;;32.00;95.60;;;;;;4999799;28;20041;-90
2023/07/18 18:15:39;;;;;;;29.33;26.33;;;31.90;95.70;;;;;;4999954;28;20056;-92
2023/07/18 18:18:05;;;;;;;27.95;25.65;;;31.70;95.90;;;;;;4999846;28;20501;-91
2023/07/18 18:20:33;;;;;;;27.75;25.15;;;31.70;96.00;;;;;;5016452;28;20129;-92
2023/07/18 18:22:59;;;;;;;26.83;24.60;;;31.60;96.00;;;;;;5016334;28;20044;-91
2023/07/18 18:25:27;;;;;;;36.70;26.08;;;31.50;96.20;;;;;;5016492;28;20037;-91
2023/07/18 18:27:54;;;;;;;27.33;25.13;;;31.50;96.30;;;;;;5016342;28;20465;-90
2023/07/18 18:30:22;;;;;;;27.42;24.70;;;31.40;96.40;;;;;;5016241;28;20034;-90
2023/07/18 18:32:48;;;;;;;27.70;25.40;;;31.40;96.60;;;;;;5016238;28;20038;-89
2023/07/18 18:35:15;;;;;;;26.98;24.77;;;31.30;96.80;;;;;;5016201;28;20120;-91
2023/07/18 18:37:45;;;;;;;27.40;24.73;;;31.20;96.90;;;;;;5016315;28;20041;-90
2023/07/18 18:40:11;;;;;;;27.10;24.48;;;31.10;97.20;;;;;;5016345;28;20033;-91
2023/07/18 18:42:38;;;;;;;26.23;24.33;;;31.00;97.30;;;;;;5016209;28;20044;-92
2023/07/18 18:45:05;;;;;;;25.73;23.70;;;31.00;97.50;;;;;;5016294;28;20128;-90
2023/07/18 18:47:31;;;;;;;27.98;24.80;;;30.90;97.60;;;;;;5016037;28;20263;-91
2023/07/18 18:49:57;;;;;;;27.05;24.63;;;30.90;97.80;;;;;;5016224;28;20034;-92
2023/07/18 18:52:24;;;;;;;25.08;23.30;;;30.80;97.90;;;;;;5016096;28;20036;-90
2023/07/18 18:54:50;;;;;;;25.85;23.63;;;30.80;98.20;;;;;;5015892;28;20479;-92
2023/07/18 18:57:19;;;;;;;25.75;23.65;;;30.70;98.40;;;;;;5016066;28;20033;-92
2023/07/18 18:59:45;;;;;;;26.02;23.50;;;30.70;98.60;;;;;;5019078;28;20040;-90
2023/07/18 19:02:15;;;;;;;25.88;23.60;;;30.60;98.80;;;;;;5003063;28;20049;-91
2023/07/18 19:04:42;;;;;;;25.48;23.38;;;30.50;99.00;;;;;;5003516;28;20217;-90
2023/07/18 19:07:08;;;;;;;25.02;23.30;;;30.40;99.20;;;;;;5003372;28;20064;-90
2023/07/18 19:09:35;;;;;;;26.02;23.88;;;30.40;99.40;;;;;;5003146;28;20041;-91
2023/07/18 19:12:01;;;;;;;26.10;23.75;;;30.40;99.60;;;;;;5002806;28;20041;-91
2023/07/18 19:14:28;;;;;;;25.55;23.33;;;30.30;99.70;;;;;;5003025;28;20076;-91
2023/07/18 19:16:54;;;;;;;25.80;23.55;;;30.30;99.90;;;;;;5002806;28;20079;-92
2023/07/18 19:19:20;;;;;;;25.23;23.40;;;30.30;99.90;;;;;;5002795;28;20422;-89
2023/07/18 19:21:47;;;;;;;24.77;22.98;;;30.20;99.90;;;;;;5003010;28;20490;-92
2023/07/18 19:24:13;;;;;;;26.83;24.05;;;30.20;99.90;;;;;;5019097;28;20084;-92
2023/07/18 19:26:40;;;;;;;24.98;23.08;;;30.20;99.90;;;;;;5008957;28;20403;-91
2023/07/18 19:29:09;;;;;;;25.67;23.13;;;30.20;99.90;;;;;;4999270;28;20139;-90
2023/07/18 19:31:35;;;;;;;25.27;23.08;;;30.20;99.90;;;;;;4999243;28;20121;-91
2023/07/18 19:34:01;;;;;;;24.35;22.55;;;30.20;99.90;;;;;;5005888;28;20037;-90
2023/07/18 19:36:28;;;;;;;24.65;22.75;;;30.20;99.90;;;;;;5002568;28;20033;-91
2023/07/18 19:38:54;;;;;;;25.67;22.85;;;30.10;99.90;;;;;;5018597;28;20033;-90
2023/07/18 19:41:43;;;;;;;24.40;22.30;;;30.10;99.90;;;;;;5019084;28;20038;-93
2023/07/18 19:44:10;;;;;;;24.02;22.08;;;30.10;99.90;;;;;;5003219;28;20049;-74
2023/07/18 19:46:36;;;;;;;25.00;22.63;;;30.10;99.90;;;;;;5031956;28;20032;-86
2023/07/18 19:49:02;;;;;;;23.55;21.77;;;30.00;99.90;;;;;;5017697;28;20499;-90
2023/07/18 19:51:30;;;;;;;23.45;21.73;;;30.00;99.90;;;;;;5024200;28;20029;-92
2023/07/18 23:20:28;;;;;;;22.80;20.97;;;27.80;99.90;;;;;;6149147;23;20025;31
2023/07/18 23:22:55;;;;;;;22.90;21.05;;;27.80;99.90;;;;;;4924551;29;20549;-90
2023/07/18 23:25:21;;;;;;;22.48;20.33;;;27.80;99.90;;;;;;4912003;29;20126;-88
2023/07/18 23:27:54;;;;;;;23.30;21.27;;;27.80;99.90;;;;;;4911907;29;20498;-95
2023/07/18 23:30:41;;;;;;;22.60;20.75;;;27.80;99.90;;;;;;4944339;29;20096;-92
2023/07/18 23:33:08;;;;;;;23.02;20.88;;;27.80;99.90;;;;;;4950658;29;20024;-94
2023/07/18 23:35:37;;;;;;;23.90;21.70;;;27.80;99.90;;;;;;4942622;29;20062;-95
2023/07/18 23:38:03;;;;;;;22.80;20.98;;;27.80;99.90;;;;;;4945722;29;20470;-92
2023/07/18 23:40:29;;;;;;;23.55;21.27;;;27.90;99.90;;;;;;4931185;28;20042;-92
2023/07/18 23:42:56;;;;;;;23.83;21.63;;;27.90;99.90;;;;;;4948350;28;20103;-87
2023/07/18 23:45:23;;;;;;;23.65;21.50;;;27.80;99.90;;;;;;4930524;29;20038;-86
2023/07/18 23:47:50;;;;;;;23.08;21.15;;;27.80;99.90;;;;;;4940490;29;20094;-86
2023/07/18 23:50:16;;;;;;;22.92;20.80;;;27.80;99.90;;;;;;4926793;29;20039;-85
2023/07/18 23:52:42;;;;;;;25.85;21.63;;;27.70;99.90;;;;;;4949712;28;20038;-86
2023/07/18 23:55:09;;;;;;;22.58;20.60;;;27.70;99.90;;;;;;4943905;28;20392;-86
2023/07/18 23:57:36;;;;;;;23.45;21.15;;;27.70;99.90;;;;;;4943824;28;20046;-86
